sensor_id;sensor_type;location;lat;lon;timestamp;P1;durP1;ratioP1;P2;durP2;ratioP2
67556;SDS011;54387;53.526;49.300;2023-11-18T00:01:30;3.75;;;0.90;;
67556;SDS011;54387;53.526;49.300;2023-11-18T00:03:58;1.27;;;0.50;;
67556;SDS011;54387;53.526;49.300;2023-11-18T00:06:25;2.05;;;0.82;;
67556;SDS011;54387;53.526;49.300;2023-11-18T00:08:52;1.35;;;0.80;;
67556;SDS011;54387;53.526;49.300;2023-11-18T00:11:18;1.83;;;0.90;;
67556;SDS011;54387;53.526;49.300;2023-11-18T00:13:44;1.25;;;0.70;;
67556;SDS011;54387;53.526;49.300;2023-11-18T00:16:10;1.55;;;0.75;;
67556;SDS011;54387;53.526;49.300;2023-11-18T00:18:44;1.63;;;0.80;;
67556;SDS011;54387;53.526;49.300;2023-11-18T00:21:10;2.20;;;1.17;;
67556;SDS011;54387;53.526;49.300;2023-11-18T00:23:37;1.88;;;0.88;;
67556;SDS011;54387;53.526;49.300;2023-11-18T00:26:03;3.05;;;0.98;;
67556;SDS011;54387;53.526;49.300;2023-11-18T00:28:32;1.83;;;1.02;;
67556;SDS011;54387;53.526;49.300;2023-11-18T00:30:58;2.15;;;0.75;;
67556;SDS011;54387;53.526;49.300;2023-11-18T00:33:25;2.10;;;1.10;;
67556;SDS011;54387;53.526;49.300;2023-11-18T00:35:51;1.77;;;0.80;;
67556;SDS011;54387;53.526;49.300;2023-11-18T00:38:17;2.10;;;0.98;;
67556;SDS011;54387;53.526;49.300;2023-11-18T00:40:43;1.48;;;1.00;;
67556;SDS011;54387;53.526;49.300;2023-11-18T00:43:09;1.45;;;0.90;;
67556;SDS011;54387;53.526;49.300;2023-11-18T00:45:35;1.88;;;0.90;;
67556;SDS011;54387;53.526;49.300;2023-11-18T00:48:02;2.88;;;0.95;;
67556;SDS011;54387;53.526;49.300;2023-11-18T00:50:30;2.50;;;0.98;;
67556;SDS011;54387;53.526;49.300;2023-11-18T00:52:58;1.58;;;0.80;;
67556;SDS011;54387;53.526;49.300;2023-11-18T00:55:24;2.63;;;0.80;;
67556;SDS011;54387;53.526;49.300;2023-11-18T00:57:51;1.38;;;0.90;;
67556;SDS011;54387;53.526;49.300;2023-11-18T01:00:17;0.82;;;0.63;;
67556;SDS011;54387;53.526;49.300;2023-11-18T01:02:47;3.90;;;1.05;;
67556;SDS011;54387;53.526;49.300;2023-11-18T01:05:15;1.50;;;0.85;;
67556;SDS011;54387;53.526;49.300;2023-11-18T01:07:41;1.60;;;0.70;;
67556;SDS011;54387;53.526;49.300;2023-11-18T01:10:08;1.20;;;0.77;;
67556;SDS011;54387;53.526;49.300;2023-11-18T01:12:39;2.00;;;0.90;;
67556;SDS011;54387;53.526;49.300;2023-11-18T01:15:06;3.00;;;1.00;;
67556;SDS011;54387;53.526;49.300;2023-11-18T01:17:35;1.20;;;0.93;;
67556;SDS011;54387;53.526;49.300;2023-11-18T01:20:02;2.17;;;1.05;;
67556;SDS011;54387;53.526;49.300;2023-11-18T01:22:34;3.53;;;0.95;;
67556;SDS011;54387;53.526;49.300;2023-11-18T01:25:01;4.00;;;1.08;;
67556;SDS011;54387;53.526;49.300;2023-11-18T01:27:27;0.95;;;0.60;;
67556;SDS011;54387;53.526;49.300;2023-11-18T01:29:53;1.35;;;0.68;;
67556;SDS011;54387;53.526;49.300;2023-11-18T01:32:19;2.00;;;0.70;;
67556;SDS011;54387;53.526;49.300;2023-11-18T01:34:46;2.67;;;0.75;;
67556;SDS011;54387;53.526;49.300;2023-11-18T01:37:16;2.05;;;0.95;;
67556;SDS011;54387;53.526;49.300;2023-11-18T01:39:42;1.08;;;0.65;;
67556;SDS011;54387;53.526;49.300;2023-11-18T01:42:09;0.90;;;0.65;;
67556;SDS011;54387;53.526;49.300;2023-11-18T01:44:35;3.42;;;0.90;;
67556;SDS011;54387;53.526;49.300;2023-11-18T01:47:02;1.42;;;0.60;;
67556;SDS011;54387;53.526;49.300;2023-11-18T01:49:31;2.78;;;0.88;;
67556;SDS011;54387;53.526;49.300;2023-11-18T01:52:02;1.63;;;0.70;;
67556;SDS011;54387;53.526;49.300;2023-11-18T01:54:29;1.02;;;0.85;;
67556;SDS011;54387;53.526;49.300;2023-11-18T01:56:57;1.45;;;0.93;;
67556;SDS011;54387;53.526;49.300;2023-11-18T01:59:25;2.50;;;0.85;;
67556;SDS011;54387;53.526;49.300;2023-11-18T02:01:55;1.83;;;0.95;;
67556;SDS011;54387;53.526;49.300;2023-11-18T02:04:25;2.40;;;0.70;;
67556;SDS011;54387;53.526;49.300;2023-11-18T02:06:51;3.60;;;1.00;;
67556;SDS011;54387;53.526;49.300;2023-11-18T02:09:19;1.38;;;0.63;;
67556;SDS011;54387;53.526;49.300;2023-11-18T02:14:39;2.88;;;1.02;;
67556;SDS011;54387;53.526;49.300;2023-11-18T02:17:05;2.92;;;0.90;;
67556;SDS011;54387;53.526;49.300;2023-11-18T02:19:35;1.67;;;0.88;;
67556;SDS011;54387;53.526;49.300;2023-11-18T02:22:04;1.15;;;0.63;;
67556;SDS011;54387;53.526;49.300;2023-11-18T02:24:33;2.15;;;0.90;;
67556;SDS011;54387;53.526;49.300;2023-11-18T02:27:03;1.25;;;0.70;;
67556;SDS011;54387;53.526;49.300;2023-11-18T02:29:37;2.63;;;0.98;;
67556;SDS011;54387;53.526;49.300;2023-11-18T02:34:56;2.42;;;1.00;;
67556;SDS011;54387;53.526;49.300;2023-11-18T02:37:45;1.63;;;0.63;;
67556;SDS011;54387;53.526;49.300;2023-11-18T02:40:16;5.25;;;1.00;;
67556;SDS011;54387;53.526;49.300;2023-11-18T02:42:45;1.08;;;0.63;;
67556;SDS011;54387;53.526;49.300;2023-11-18T02:45:14;1.50;;;1.02;;
67556;SDS011;54387;53.526;49.300;2023-11-18T02:47:45;1.45;;;0.98;;
67556;SDS011;54387;53.526;49.300;2023-11-18T02:50:13;3.28;;;1.10;;
67556;SDS011;54387;53.526;49.300;2023-11-18T02:52:40;0.65;;;0.52;;
67556;SDS011;54387;53.526;49.300;2023-11-18T02:55:07;4.82;;;1.00;;
67556;SDS011;54387;53.526;49.300;2023-11-18T02:57:34;1.55;;;1.02;;
67556;SDS011;54387;53.526;49.300;2023-11-18T03:00:02;2.78;;;0.90;;
67556;SDS011;54387;53.526;49.300;2023-11-18T03:02:37;1.35;;;0.90;;
67556;SDS011;54387;53.526;49.300;2023-11-18T03:05:07;2.80;;;1.38;;
67556;SDS011;54387;53.526;49.300;2023-11-18T03:07:43;2.28;;;0.95;;
67556;SDS011;54387;53.526;49.300;2023-11-18T03:10:18;3.03;;;1.23;;
67556;SDS011;54387;53.526;49.300;2023-11-18T03:12:48;1.73;;;0.82;;
67556;SDS011;54387;53.526;49.300;2023-11-18T03:15:18;1.65;;;1.00;;
67556;SDS011;54387;53.526;49.300;2023-11-18T03:17:45;1.98;;;1.15;;
67556;SDS011;54387;53.526;49.300;2023-11-18T03:20:14;7.25;;;1.42;;
67556;SDS011;54387;53.526;49.300;2023-11-18T03:22:45;3.33;;;1.27;;
67556;SDS011;54387;53.526;49.300;2023-11-18T03:25:12;4.15;;;1.33;;
67556;SDS011;54387;53.526;49.300;2023-11-18T03:27:39;1.77;;;1.10;;
67556;SDS011;54387;53.526;49.300;2023-11-18T03:30:05;3.97;;;1.40;;
67556;SDS011;54387;53.526;49.300;2023-11-18T03:32:34;4.53;;;1.27;;
67556;SDS011;54387;53.526;49.300;2023-11-18T03:35:02;4.50;;;1.33;;
67556;SDS011;54387;53.526;49.300;2023-11-18T03:37:29;2.85;;;1.30;;
67556;SDS011;54387;53.526;49.300;2023-11-18T03:39:57;5.40;;;1.27;;
67556;SDS011;54387;53.526;49.300;2023-11-18T03:42:23;5.05;;;1.27;;
67556;SDS011;54387;53.526;49.300;2023-11-18T03:44:49;2.03;;;1.20;;
67556;SDS011;54387;53.526;49.300;2023-11-18T03:47:16;3.25;;;1.05;;
67556;SDS011;54387;53.526;49.300;2023-11-18T03:49:42;2.22;;;1.08;;
67556;SDS011;54387;53.526;49.300;2023-11-18T03:52:09;7.28;;;1.40;;
67556;SDS011;54387;53.526;49.300;2023-11-18T03:54:35;3.00;;;1.27;;
67556;SDS011;54387;53.526;49.300;2023-11-18T03:57:01;2.65;;;1.30;;
67556;SDS011;54387;53.526;49.300;2023-11-18T03:59:27;4.35;;;1.50;;
67556;SDS011;54387;53.526;49.300;2023-11-18T04:01:53;3.97;;;1.52;;
67556;SDS011;54387;53.526;49.300;2023-11-18T04:04:20;4.20;;;1.25;;
67556;SDS011;54387;53.526;49.300;2023-11-18T04:06:46;4.85;;;1.60;;
67556;SDS011;54387;53.526;49.300;2023-11-18T04:09:12;6.10;;;1.77;;
67556;SDS011;54387;53.526;49.300;2023-11-18T04:11:39;4.03;;;1.80;;
67556;SDS011;54387;53.526;49.300;2023-11-18T04:14:07;3.03;;;1.25;;
67556;SDS011;54387;53.526;49.300;2023-11-18T04:16:33;7.80;;;1.80;;
67556;SDS011;54387;53.526;49.300;2023-11-18T04:18:59;7.38;;;1.80;;
67556;SDS011;54387;53.526;49.300;2023-11-18T04:21:26;2.58;;;1.48;;
67556;SDS011;54387;53.526;49.300;2023-11-18T04:23:52;4.25;;;1.40;;
67556;SDS011;54387;53.526;49.300;2023-11-18T04:26:18;6.28;;;1.55;;
67556;SDS011;54387;53.526;49.300;2023-11-18T04:28:44;3.10;;;1.58;;
67556;SDS011;54387;53.526;49.300;2023-11-18T04:31:10;3.20;;;1.23;;
67556;SDS011;54387;53.526;49.300;2023-11-18T04:33:37;3.03;;;1.20;;
67556;SDS011;54387;53.526;49.300;2023-11-18T04:36:06;2.65;;;1.15;;
67556;SDS011;54387;53.526;49.300;2023-11-18T04:38:35;4.05;;;1.65;;
67556;SDS011;54387;53.526;49.300;2023-11-18T04:41:02;4.97;;;1.30;;
67556;SDS011;54387;53.526;49.300;2023-11-18T04:43:29;3.85;;;1.10;;
67556;SDS011;54387;53.526;49.300;2023-11-18T04:45:55;4.10;;;1.55;;
67556;SDS011;54387;53.526;49.300;2023-11-18T04:48:22;5.25;;;1.35;;
67556;SDS011;54387;53.526;49.300;2023-11-18T04:50:48;3.45;;;1.33;;
67556;SDS011;54387;53.526;49.300;2023-11-18T04:53:14;4.07;;;1.77;;
67556;SDS011;54387;53.526;49.300;2023-11-18T04:55:41;8.30;;;1.70;;
67556;SDS011;54387;53.526;49.300;2023-11-18T04:58:07;2.55;;;1.00;;
67556;SDS011;54387;53.526;49.300;2023-11-18T05:00:38;6.53;;;1.55;;
67556;SDS011;54387;53.526;49.300;2023-11-18T05:03:04;3.28;;;1.40;;
67556;SDS011;54387;53.526;49.300;2023-11-18T05:05:35;5.30;;;1.23;;
67556;SDS011;54387;53.526;49.300;2023-11-18T05:08:06;4.72;;;1.52;;
67556;SDS011;54387;53.526;49.300;2023-11-18T05:10:33;4.68;;;1.58;;
67556;SDS011;54387;53.526;49.300;2023-11-18T05:13:01;2.28;;;1.58;;
67556;SDS011;54387;53.526;49.300;2023-11-18T05:15:28;2.80;;;1.60;;
67556;SDS011;54387;53.526;49.300;2023-11-18T05:17:55;3.58;;;1.70;;
67556;SDS011;54387;53.526;49.300;2023-11-18T05:20:21;5.53;;;1.90;;
67556;SDS011;54387;53.526;49.300;2023-11-18T05:22:48;7.22;;;2.80;;
67556;SDS011;54387;53.526;49.300;2023-11-18T05:25:15;4.57;;;1.92;;
67556;SDS011;54387;53.526;49.300;2023-11-18T05:27:41;10.98;;;2.20;;
67556;SDS011;54387;53.526;49.300;2023-11-18T05:30:07;5.20;;;1.38;;
67556;SDS011;54387;53.526;49.300;2023-11-18T05:32:34;1.45;;;1.00;;
67556;SDS011;54387;53.526;49.300;2023-11-18T05:35:02;2.47;;;1.30;;
67556;SDS011;54387;53.526;49.300;2023-11-18T05:37:30;6.40;;;1.65;;
67556;SDS011;54387;53.526;49.300;2023-11-18T05:40:04;6.05;;;1.42;;
67556;SDS011;54387;53.526;49.300;2023-11-18T05:45:06;2.17;;;1.30;;
67556;SDS011;54387;53.526;49.300;2023-11-18T05:47:33;4.03;;;1.20;;
67556;SDS011;54387;53.526;49.300;2023-11-18T05:50:00;1.88;;;1.17;;
67556;SDS011;54387;53.526;49.300;2023-11-18T05:52:26;3.92;;;1.40;;
67556;SDS011;54387;53.526;49.300;2023-11-18T05:54:53;5.22;;;1.63;;
67556;SDS011;54387;53.526;49.300;2023-11-18T05:57:19;2.83;;;1.27;;
67556;SDS011;54387;53.526;49.300;2023-11-18T05:59:45;2.78;;;1.15;;
67556;SDS011;54387;53.526;49.300;2023-11-18T06:02:13;5.07;;;1.70;;
67556;SDS011;54387;53.526;49.300;2023-11-18T06:04:46;3.95;;;1.48;;
67556;SDS011;54387;53.526;49.300;2023-11-18T06:07:12;6.03;;;1.60;;
67556;SDS011;54387;53.526;49.300;2023-11-18T06:09:40;8.30;;;1.55;;
67556;SDS011;54387;53.526;49.300;2023-11-18T06:12:09;7.88;;;1.75;;
67556;SDS011;54387;53.526;49.300;2023-11-18T06:14:39;7.97;;;1.63;;
67556;SDS011;54387;53.526;49.300;2023-11-18T06:17:07;4.50;;;1.38;;
67556;SDS011;54387;53.526;49.300;2023-11-18T06:19:34;10.07;;;1.90;;
67556;SDS011;54387;53.526;49.300;2023-11-18T06:22:00;4.38;;;1.50;;
67556;SDS011;54387;53.526;49.300;2023-11-18T06:24:26;5.40;;;1.42;;
67556;SDS011;54387;53.526;49.300;2023-11-18T06:26:53;9.98;;;2.30;;
67556;SDS011;54387;53.526;49.300;2023-11-18T06:29:20;3.28;;;1.40;;
67556;SDS011;54387;53.526;49.300;2023-11-18T06:31:46;3.72;;;1.63;;
67556;SDS011;54387;53.526;49.300;2023-11-18T06:34:13;9.45;;;1.83;;
67556;SDS011;54387;53.526;49.300;2023-11-18T06:36:40;3.08;;;1.38;;
67556;SDS011;54387;53.526;49.300;2023-11-18T06:39:06;5.05;;;1.70;;
67556;SDS011;54387;53.526;49.300;2023-11-18T06:41:33;5.82;;;1.50;;
67556;SDS011;54387;53.526;49.300;2023-11-18T06:44:00;5.57;;;1.73;;
67556;SDS011;54387;53.526;49.300;2023-11-18T06:46:34;5.63;;;1.50;;
67556;SDS011;54387;53.526;49.300;2023-11-18T06:49:02;5.20;;;1.92;;
67556;SDS011;54387;53.526;49.300;2023-11-18T06:51:31;7.32;;;2.28;;
67556;SDS011;54387;53.526;49.300;2023-11-18T06:54:00;14.23;;;2.10;;
67556;SDS011;54387;53.526;49.300;2023-11-18T06:56:34;6.13;;;2.00;;
67556;SDS011;54387;53.526;49.300;2023-11-18T06:59:08;5.75;;;2.35;;
67556;SDS011;54387;53.526;49.300;2023-11-18T07:01:38;5.82;;;1.65;;
67556;SDS011;54387;53.526;49.300;2023-11-18T07:04:09;8.00;;;1.70;;
67556;SDS011;54387;53.526;49.300;2023-11-18T07:06:36;2.17;;;1.40;;
67556;SDS011;54387;53.526;49.300;2023-11-18T07:09:06;3.42;;;1.50;;
67556;SDS011;54387;53.526;49.300;2023-11-18T07:11:43;11.15;;;2.10;;
67556;SDS011;54387;53.526;49.300;2023-11-18T07:14:10;5.43;;;2.05;;
67556;SDS011;54387;53.526;49.300;2023-11-18T07:16:41;6.07;;;1.85;;
67556;SDS011;54387;53.526;49.300;2023-11-18T07:19:08;3.42;;;1.58;;
67556;SDS011;54387;53.526;49.300;2023-11-18T07:21:45;12.30;;;2.08;;
67556;SDS011;54387;53.526;49.300;2023-11-18T07:24:12;11.07;;;1.83;;
67556;SDS011;54387;53.526;49.300;2023-11-18T07:26:38;6.05;;;1.42;;
67556;SDS011;54387;53.526;49.300;2023-11-18T07:29:04;7.20;;;2.17;;
67556;SDS011;54387;53.526;49.300;2023-11-18T07:31:33;6.28;;;1.85;;
67556;SDS011;54387;53.526;49.300;2023-11-18T07:34:05;3.85;;;2.10;;
67556;SDS011;54387;53.526;49.300;2023-11-18T07:36:31;8.98;;;1.85;;
67556;SDS011;54387;53.526;49.300;2023-11-18T07:38:59;4.78;;;1.48;;
67556;SDS011;54387;53.526;49.300;2023-11-18T07:41:30;6.53;;;1.50;;
67556;SDS011;54387;53.526;49.300;2023-11-18T07:43:57;7.07;;;2.05;;
67556;SDS011;54387;53.526;49.300;2023-11-18T07:46:23;3.65;;;2.30;;
67556;SDS011;54387;53.526;49.300;2023-11-18T07:48:56;2.80;;;1.10;;
67556;SDS011;54387;53.526;49.300;2023-11-18T07:51:22;6.47;;;1.50;;
67556;SDS011;54387;53.526;49.300;2023-11-18T07:53:49;5.43;;;1.77;;
67556;SDS011;54387;53.526;49.300;2023-11-18T07:56:15;13.05;;;1.60;;
67556;SDS011;54387;53.526;49.300;2023-11-18T07:58:45;6.03;;;1.70;;
67556;SDS011;54387;53.526;49.300;2023-11-18T08:01:12;7.32;;;1.40;;
67556;SDS011;54387;53.526;49.300;2023-11-18T08:03:41;3.47;;;1.08;;
67556;SDS011;54387;53.526;49.300;2023-11-18T08:06:08;2.55;;;1.20;;
67556;SDS011;54387;53.526;49.300;2023-11-18T08:08:35;3.92;;;1.38;;
67556;SDS011;54387;53.526;49.300;2023-11-18T08:11:06;5.63;;;1.45;;
67556;SDS011;54387;53.526;49.300;2023-11-18T08:13:38;4.20;;;1.08;;
67556;SDS011;54387;53.526;49.300;2023-11-18T08:16:04;2.50;;;1.15;;
67556;SDS011;54387;53.526;49.300;2023-11-18T08:18:32;2.30;;;1.10;;
67556;SDS011;54387;53.526;49.300;2023-11-18T08:21:00;7.78;;;1.70;;
67556;SDS011;54387;53.526;49.300;2023-11-18T08:23:27;8.73;;;2.35;;
67556;SDS011;54387;53.526;49.300;2023-11-18T08:25:57;4.60;;;1.25;;
67556;SDS011;54387;53.526;49.300;2023-11-18T08:28:24;8.65;;;1.90;;
67556;SDS011;54387;53.526;49.300;2023-11-18T08:30:51;3.92;;;1.58;;
67556;SDS011;54387;53.526;49.300;2023-11-18T08:33:19;4.00;;;1.42;;
67556;SDS011;54387;53.526;49.300;2023-11-18T08:35:49;2.03;;;0.98;;
67556;SDS011;54387;53.526;49.300;2023-11-18T08:38:16;5.07;;;1.50;;
67556;SDS011;54387;53.526;49.300;2023-11-18T08:40:43;4.47;;;1.58;;
67556;SDS011;54387;53.526;49.300;2023-11-18T08:43:10;2.55;;;1.23;;
67556;SDS011;54387;53.526;49.300;2023-11-18T08:45:36;8.25;;;2.10;;
67556;SDS011;54387;53.526;49.300;2023-11-18T08:48:03;3.38;;;1.52;;
67556;SDS011;54387;53.526;49.300;2023-11-18T08:50:33;9.32;;;1.80;;
67556;SDS011;54387;53.526;49.300;2023-11-18T08:53:00;6.57;;;1.58;;
67556;SDS011;54387;53.526;49.300;2023-11-18T08:55:30;7.95;;;2.13;;
67556;SDS011;54387;53.526;49.300;2023-11-18T08:58:08;2.95;;;1.33;;
67556;SDS011;54387;53.526;49.300;2023-11-18T09:00:51;5.38;;;1.40;;
67556;SDS011;54387;53.526;49.300;2023-11-18T09:03:25;5.93;;;1.85;;
67556;SDS011;54387;53.526;49.300;2023-11-18T09:06:01;6.13;;;1.73;;
67556;SDS011;54387;53.526;49.300;2023-11-18T09:08:34;6.38;;;1.65;;
67556;SDS011;54387;53.526;49.300;2023-11-18T09:11:04;12.60;;;2.08;;
67556;SDS011;54387;53.526;49.300;2023-11-18T09:13:32;11.52;;;2.20;;
67556;SDS011;54387;53.526;49.300;2023-11-18T09:16:03;4.65;;;1.23;;
67556;SDS011;54387;53.526;49.300;2023-11-18T09:18:35;6.20;;;1.60;;
67556;SDS011;54387;53.526;49.300;2023-11-18T09:21:02;6.15;;;1.25;;
67556;SDS011;54387;53.526;49.300;2023-11-18T09:23:30;2.40;;;1.27;;
67556;SDS011;54387;53.526;49.300;2023-11-18T09:26:00;4.40;;;1.30;;
67556;SDS011;54387;53.526;49.300;2023-11-18T09:28:27;5.90;;;1.83;;
67556;SDS011;54387;53.526;49.300;2023-11-18T09:30:56;7.75;;;1.60;;
67556;SDS011;54387;53.526;49.300;2023-11-18T09:33:23;3.35;;;1.15;;
67556;SDS011;54387;53.526;49.300;2023-11-18T09:35:54;6.85;;;1.20;;
67556;SDS011;54387;53.526;49.300;2023-11-18T09:38:24;3.70;;;1.00;;
67556;SDS011;54387;53.526;49.300;2023-11-18T09:40:53;2.55;;;1.00;;
67556;SDS011;54387;53.526;49.300;2023-11-18T09:43:20;21.77;;;2.45;;
67556;SDS011;54387;53.526;49.300;2023-11-18T09:45:49;3.92;;;1.35;;
67556;SDS011;54387;53.526;49.300;2023-11-18T09:48:22;3.90;;;1.30;;
67556;SDS011;54387;53.526;49.300;2023-11-18T09:50:52;5.47;;;1.10;;
67556;SDS011;54387;53.526;49.300;2023-11-18T09:53:23;5.40;;;0.90;;
67556;SDS011;54387;53.526;49.300;2023-11-18T09:56:03;5.63;;;1.67;;
67556;SDS011;54387;53.526;49.300;2023-11-18T09:58:49;5.95;;;1.60;;
67556;SDS011;54387;53.526;49.300;2023-11-18T10:01:34;8.55;;;1.75;;
67556;SDS011;54387;53.526;49.300;2023-11-18T10:04:07;3.95;;;1.60;;
67556;SDS011;54387;53.526;49.300;2023-11-18T10:06:34;5.78;;;1.70;;
67556;SDS011;54387;53.526;49.300;2023-11-18T10:09:06;9.30;;;1.33;;
67556;SDS011;54387;53.526;49.300;2023-11-18T10:11:42;8.65;;;1.98;;
67556;SDS011;54387;53.526;49.300;2023-11-18T10:14:15;3.17;;;1.35;;
67556;SDS011;54387;53.526;49.300;2023-11-18T10:16:44;3.80;;;1.35;;
67556;SDS011;54387;53.526;49.300;2023-11-18T10:19:12;3.85;;;1.25;;
67556;SDS011;54387;53.526;49.300;2023-11-18T10:21:40;4.70;;;1.13;;
67556;SDS011;54387;53.526;49.300;2023-11-18T10:24:08;6.35;;;1.17;;
67556;SDS011;54387;53.526;49.300;2023-11-18T10:26:55;4.43;;;1.17;;
67556;SDS011;54387;53.526;49.300;2023-11-18T10:29:25;6.07;;;2.17;;
67556;SDS011;54387;53.526;49.300;2023-11-18T10:32:04;4.47;;;2.00;;
67556;SDS011;54387;53.526;49.300;2023-11-18T10:34:35;3.15;;;1.27;;
67556;SDS011;54387;53.526;49.300;2023-11-18T10:37:03;7.10;;;1.85;;
67556;SDS011;54387;53.526;49.300;2023-11-18T10:39:31;8.65;;;1.90;;
67556;SDS011;54387;53.526;49.300;2023-11-18T10:42:01;7.20;;;1.38;;
67556;SDS011;54387;53.526;49.300;2023-11-18T10:44:28;9.45;;;2.40;;
67556;SDS011;54387;53.526;49.300;2023-11-18T10:46:55;7.03;;;1.65;;
67556;SDS011;54387;53.526;49.300;2023-11-18T10:49:28;2.35;;;1.30;;
67556;SDS011;54387;53.526;49.300;2023-11-18T10:52:02;4.60;;;1.60;;
67556;SDS011;54387;53.526;49.300;2023-11-18T10:54:32;4.55;;;1.27;;
67556;SDS011;54387;53.526;49.300;2023-11-18T10:57:00;4.75;;;1.42;;
67556;SDS011;54387;53.526;49.300;2023-11-18T10:59:34;2.22;;;1.13;;
67556;SDS011;54387;53.526;49.300;2023-11-18T11:02:17;6.35;;;1.08;;
67556;SDS011;54387;53.526;49.300;2023-11-18T11:04:45;5.00;;;1.50;;
67556;SDS011;54387;53.526;49.300;2023-11-18T11:07:11;7.40;;;1.52;;
67556;SDS011;54387;53.526;49.300;2023-11-18T11:09:39;9.50;;;1.73;;
67556;SDS011;54387;53.526;49.300;2023-11-18T11:12:10;3.10;;;1.05;;
67556;SDS011;54387;53.526;49.300;2023-11-18T11:14:43;6.78;;;1.40;;
67556;SDS011;54387;53.526;49.300;2023-11-18T11:17:19;6.28;;;1.30;;
67556;SDS011;54387;53.526;49.300;2023-11-18T11:20:03;7.35;;;1.30;;
67556;SDS011;54387;53.526;49.300;2023-11-18T11:23:14;9.15;;;1.95;;
67556;SDS011;54387;53.526;49.300;2023-11-18T11:31:26;7.20;;;0.80;;
67556;SDS011;54387;53.526;49.300;2023-11-18T11:34:20;2.45;;;0.88;;
67556;SDS011;54387;53.526;49.300;2023-11-18T11:36:51;9.05;;;1.45;;
67556;SDS011;54387;53.526;49.300;2023-11-18T11:39:20;5.95;;;1.63;;
67556;SDS011;54387;53.526;49.300;2023-11-18T11:41:55;5.80;;;1.60;;
67556;SDS011;54387;53.526;49.300;2023-11-18T11:44:24;5.50;;;1.50;;
67556;SDS011;54387;53.526;49.300;2023-11-18T11:46:56;6.97;;;0.90;;
67556;SDS011;54387;53.526;49.300;2023-11-18T11:49:25;5.47;;;1.67;;
67556;SDS011;54387;53.526;49.300;2023-11-18T11:52:04;10.10;;;2.08;;
67556;SDS011;54387;53.526;49.300;2023-11-18T11:54:59;13.77;;;2.40;;
67556;SDS011;54387;53.526;49.300;2023-11-18T11:57:38;24.33;;;6.70;;
67556;SDS011;54387;53.526;49.300;2023-11-18T12:00:11;6.18;;;1.77;;
67556;SDS011;54387;53.526;49.300;2023-11-18T12:02:50;7.20;;;1.50;;
67556;SDS011;54387;53.526;49.300;2023-11-18T12:05:25;4.38;;;1.52;;
67556;SDS011;54387;53.526;49.300;2023-11-18T12:07:52;7.80;;;1.42;;
67556;SDS011;54387;53.526;49.300;2023-11-18T12:10:21;7.28;;;2.55;;
67556;SDS011;54387;53.526;49.300;2023-11-18T12:13:06;8.18;;;1.75;;
67556;SDS011;54387;53.526;49.300;2023-11-18T12:15:53;8.40;;;2.55;;
67556;SDS011;54387;53.526;49.300;2023-11-18T12:18:22;14.98;;;3.70;;
67556;SDS011;54387;53.526;49.300;2023-11-18T12:20:50;7.55;;;1.85;;
67556;SDS011;54387;53.526;49.300;2023-11-18T12:23:29;5.70;;;1.45;;
67556;SDS011;54387;53.526;49.300;2023-11-18T12:25:59;7.80;;;2.20;;
67556;SDS011;54387;53.526;49.300;2023-11-18T12:28:31;8.98;;;1.67;;
67556;SDS011;54387;53.526;49.300;2023-11-18T12:31:12;4.80;;;1.40;;
67556;SDS011;54387;53.526;49.300;2023-11-18T12:34:07;10.35;;;1.90;;
67556;SDS011;54387;53.526;49.300;2023-11-18T12:36:56;8.68;;;2.47;;
67556;SDS011;54387;53.526;49.300;2023-11-18T12:40:08;7.82;;;1.45;;
67556;SDS011;54387;53.526;49.300;2023-11-18T12:43:02;3.60;;;1.48;;
67556;SDS011;54387;53.526;49.300;2023-11-18T12:45:46;5.05;;;1.60;;
67556;SDS011;54387;53.526;49.300;2023-11-18T12:48:45;4.47;;;1.90;;
67556;SDS011;54387;53.526;49.300;2023-11-18T12:51:17;10.48;;;2.50;;
67556;SDS011;54387;53.526;49.300;2023-11-18T12:53:49;13.55;;;4.25;;
67556;SDS011;54387;53.526;49.300;2023-11-18T12:56:17;13.95;;;4.10;;
67556;SDS011;54387;53.526;49.300;2023-11-18T12:58:45;11.40;;;3.15;;
67556;SDS011;54387;53.526;49.300;2023-11-18T13:01:13;6.03;;;2.08;;
67556;SDS011;54387;53.526;49.300;2023-11-18T13:03:44;8.85;;;2.70;;
67556;SDS011;54387;53.526;49.300;2023-11-18T13:06:11;7.43;;;2.50;;
67556;SDS011;54387;53.526;49.300;2023-11-18T13:08:38;16.90;;;3.08;;
67556;SDS011;54387;53.526;49.300;2023-11-18T13:11:05;9.15;;;3.03;;
67556;SDS011;54387;53.526;49.300;2023-11-18T13:13:38;13.13;;;2.92;;
67556;SDS011;54387;53.526;49.300;2023-11-18T13:16:08;6.45;;;2.42;;
67556;SDS011;54387;53.526;49.300;2023-11-18T13:18:41;7.38;;;1.90;;
67556;SDS011;54387;53.526;49.300;2023-11-18T13:21:13;12.07;;;3.03;;
67556;SDS011;54387;53.526;49.300;2023-11-18T13:23:44;8.50;;;3.45;;
67556;SDS011;54387;53.526;49.300;2023-11-18T13:26:14;11.45;;;2.92;;
67556;SDS011;54387;53.526;49.300;2023-11-18T13:28:42;12.23;;;3.60;;
67556;SDS011;54387;53.526;49.300;2023-11-18T13:31:09;7.88;;;2.80;;
67556;SDS011;54387;53.526;49.300;2023-11-18T13:33:37;12.38;;;2.70;;
67556;SDS011;54387;53.526;49.300;2023-11-18T13:36:07;6.68;;;2.50;;
67556;SDS011;54387;53.526;49.300;2023-11-18T13:38:38;7.22;;;2.63;;
67556;SDS011;54387;53.526;49.300;2023-11-18T13:41:07;6.15;;;1.85;;
67556;SDS011;54387;53.526;49.300;2023-11-18T13:43:44;5.35;;;1.90;;
67556;SDS011;54387;53.526;49.300;2023-11-18T13:46:13;9.95;;;2.10;;
67556;SDS011;54387;53.526;49.300;2023-11-18T13:48:41;8.00;;;2.05;;
67556;SDS011;54387;53.526;49.300;2023-11-18T13:51:08;7.55;;;2.70;;
67556;SDS011;54387;53.526;49.300;2023-11-18T13:53:41;6.83;;;2.40;;
67556;SDS011;54387;53.526;49.300;2023-11-18T13:56:12;5.32;;;1.90;;
67556;SDS011;54387;53.526;49.300;2023-11-18T13:58:42;8.93;;;2.60;;
67556;SDS011;54387;53.526;49.300;2023-11-18T14:01:11;10.80;;;2.58;;
67556;SDS011;54387;53.526;49.300;2023-11-18T14:03:40;8.75;;;2.03;;
67556;SDS011;54387;53.526;49.300;2023-11-18T14:06:09;7.40;;;2.17;;
67556;SDS011;54387;53.526;49.300;2023-11-18T14:08:38;3.65;;;1.70;;
67556;SDS011;54387;53.526;49.300;2023-11-18T14:11:07;7.90;;;1.98;;
67556;SDS011;54387;53.526;49.300;2023-11-18T14:13:35;3.33;;;1.63;;
67556;SDS011;54387;53.526;49.300;2023-11-18T14:16:03;8.80;;;2.30;;
67556;SDS011;54387;53.526;49.300;2023-11-18T14:18:29;8.95;;;2.60;;
67556;SDS011;54387;53.526;49.300;2023-11-18T14:20:56;7.72;;;2.47;;
67556;SDS011;54387;53.526;49.300;2023-11-18T14:23:22;9.23;;;2.25;;
67556;SDS011;54387;53.526;49.300;2023-11-18T14:25:49;5.97;;;2.00;;
67556;SDS011;54387;53.526;49.300;2023-11-18T14:28:15;7.82;;;2.13;;
67556;SDS011;54387;53.526;49.300;2023-11-18T14:30:41;5.70;;;2.08;;
67556;SDS011;54387;53.526;49.300;2023-11-18T14:33:08;7.20;;;2.30;;
67556;SDS011;54387;53.526;49.300;2023-11-18T14:35:34;16.40;;;3.28;;
67556;SDS011;54387;53.526;49.300;2023-11-18T14:38:00;11.35;;;2.97;;
67556;SDS011;54387;53.526;49.300;2023-11-18T14:40:27;8.70;;;2.40;;
67556;SDS011;54387;53.526;49.300;2023-11-18T14:42:54;13.35;;;5.10;;
67556;SDS011;54387;53.526;49.300;2023-11-18T14:45:21;10.20;;;3.30;;
67556;SDS011;54387;53.526;49.300;2023-11-18T14:47:47;10.27;;;2.80;;
67556;SDS011;54387;53.526;49.300;2023-11-18T14:50:14;15.20;;;2.67;;
67556;SDS011;54387;53.526;49.300;2023-11-18T14:52:45;7.95;;;3.25;;
67556;SDS011;54387;53.526;49.300;2023-11-18T14:55:17;13.98;;;2.90;;
67556;SDS011;54387;53.526;49.300;2023-11-18T14:57:44;7.60;;;3.13;;
67556;SDS011;54387;53.526;49.300;2023-11-18T15:00:12;7.82;;;2.90;;
67556;SDS011;54387;53.526;49.300;2023-11-18T15:02:45;12.05;;;2.55;;